Temp: 12.3°C   Baro: 996.6mb
  Wind: 0.9mph   Dir: SSW (195°)
  Rain: 4.6mm (0.0mm/hr)
  Solar: 37W/m2  Hum: 88%
 
Bath Spa Weather Historical Data
Daily Summary for July 29, 2019 Units:  Metric    English   Both
Next Day »
Daily Weekly Monthly Yearly Custom
  High: Low: Average:
Temperature: 23.9 °C 11.9 °C 18.2 °C
Dew Point: 13.8 °C 10.3 °C 12 °C
Humidity: 91% 46% 69%
Wind Speed: 24.1km/h 0.0km/h 5.9km/h
Wind Gust: 27.4km/h - -
Wind direction- - SSE
Pressure: 1009.0 hPa 1004.6 hPa -
Precipitation: 0.0 mm    
Historical Graphs
 
 
Tabular Data for July 29, 2019
Time Temperature Dew Point Pressure Wind direction Wind Speed Wind Gust Humidity Rainfall Rate (Hourly) solar
00:04 14.6 °C 11.9 °C 1008.4 hPa Calm     84% 0.0 mm 0.00 W/m2
00:09 14.6 °C 11.9 °C 1008.4 hPa Calm     84% 0.0 mm 0.00 W/m2
00:14 14.6 °C 11.9 °C 1008.4 hPa Calm     84% 0.0 mm 0.00 W/m2
00:19 14.5 °C 11.8 °C 1008.4 hPa Calm     84% 0.0 mm 0.00 W/m2
00:24 14.5 °C 12.0 °C 1008.4 hPa Calm     85% 0.0 mm 0.00 W/m2
00:29 14.5 °C 12.0 °C 1008.4 hPa Calm     85% 0.0 mm 0.00 W/m2
00:34 14.4 °C 11.9 °C 1008.4 hPa Calm     85% 0.0 mm 0.00 W/m2
00:39 14.4 °C 11.9 °C 1008.4 hPa Calm     85% 0.0 mm 0.00 W/m2
00:44 14.5 °C 12.0 °C 1008.4 hPa Calm     85% 0.0 mm 0.00 W/m2
00:49 14.4 °C 11.9 °C 1008.4 hPa Calm     85% 0.0 mm 0.00 W/m2
00:54 14.4 °C 11.9 °C 1008.4 hPa Calm     85% 0.0 mm 0.00 W/m2
00:59 14.4 °C 12.1 °C 1008.4 hPa Calm     86% 0.0 mm 0.00 W/m2
01:04 14.4 °C 12.1 °C 1008.4 hPa Calm   3.2 km/h 86% 0.0 mm 0.00 W/m2
01:09 14.3 °C 12.0 °C 1008.4 hPa WNW 1.4 km/h 3.2 km/h 86% 0.0 mm 0.00 W/m2
01:14 14.3 °C 12.0 °C 1008.4 hPa Calm     86% 0.0 mm 0.00 W/m2
01:19 14.2 °C 11.9 °C 1008.4 hPa Calm     86% 0.0 mm 0.00 W/m2
01:24 14.2 °C 11.9 °C 1008.4 hPa Calm     86% 0.0 mm 0.00 W/m2
01:29 14.0 °C 11.7 °C 1008.4 hPa Calm     86% 0.0 mm 0.00 W/m2
01:34 13.9 °C 11.6 °C 1008.4 hPa Calm     86% 0.0 mm 0.00 W/m2
01:39 13.9 °C 11.6 °C 1008.4 hPa Calm     86% 0.0 mm 0.00 W/m2
01:44 13.9 °C 11.8 °C 1008.4 hPa Calm     87% 0.0 mm 0.00 W/m2
01:49 13.8 °C 11.7 °C 1008.4 hPa Calm     87% 0.0 mm 0.00 W/m2
01:54 13.8 °C 11.7 °C 1008.4 hPa Calm     87% 0.0 mm 0.00 W/m2
01:59 13.8 °C 11.7 °C 1008.4 hPa Calm     87% 0.0 mm 0.00 W/m2
02:04 13.7 °C 11.6 °C 1008.4 hPa Calm     87% 0.0 mm 0.00 W/m2
02:09 13.7 °C 11.6 °C 1008.4 hPa Calm     87% 0.0 mm 0.00 W/m2
02:14 13.7 °C 11.6 °C 1008.4 hPa Calm     87% 0.0 mm 0.00 W/m2
02:19 13.6 °C 11.5 °C 1008.4 hPa Calm     87% 0.0 mm 0.00 W/m2
02:24 13.6 °C 11.6 °C 1008.0 hPa Calm     88% 0.0 mm 0.00 W/m2
02:29 13.6 °C 11.6 °C 1008.4 hPa Calm     88% 0.0 mm 0.00 W/m2
02:34 13.5 °C 11.6 °C 1008.0 hPa Calm     88% 0.0 mm 0.00 W/m2
02:39 13.4 °C 11.5 °C 1008.4 hPa Calm     88% 0.0 mm 0.00 W/m2
02:44 13.3 °C 11.4 °C 1008.4 hPa Calm     88% 0.0 mm 0.00 W/m2
02:49 13.3 °C 11.4 °C 1008.0 hPa Calm     88% 0.0 mm 0.00 W/m2
02:54 13.2 °C 11.3 °C 1008.0 hPa Calm     88% 0.0 mm 0.00 W/m2
02:59 13.0 °C 11.1 °C 1008.0 hPa Calm     88% 0.0 mm 0.00 W/m2
03:04 13.0 °C 11.1 °C 1008.0 hPa Calm     88% 0.0 mm 0.00 W/m2
03:09 13.0 °C 11.1 °C 1008.0 hPa Calm     88% 0.0 mm 0.00 W/m2
03:14 13.0 °C 11.2 °C 1008.0 hPa Calm     89% 0.0 mm 0.00 W/m2
03:19 13.0 °C 11.2 °C 1008.0 hPa Calm     89% 0.0 mm 0.00 W/m2
03:24 13.0 °C 11.2 °C 1008.0 hPa Calm     89% 0.0 mm 0.00 W/m2
03:29 12.9 °C 11.1 °C 1008.0 hPa Calm     89% 0.0 mm 0.00 W/m2
03:34 12.8 °C 11.0 °C 1008.0 hPa Calm     89% 0.0 mm 0.00 W/m2
03:39 12.8 °C 11.0 °C 1008.0 hPa Calm     89% 0.0 mm 0.00 W/m2
03:44 12.7 °C 10.9 °C 1008.0 hPa Calm     89% 0.0 mm 0.00 W/m2
03:49 12.7 °C 10.9 °C 1008.0 hPa Calm     89% 0.0 mm 0.00 W/m2
03:54 12.7 °C 10.9 °C 1008.0 hPa Calm     89% 0.0 mm 0.00 W/m2
03:59 12.7 °C 10.9 °C 1008.0 hPa Calm     89% 0.0 mm 0.00 W/m2
04:04 12.7 °C 10.9 °C 1008.0 hPa Calm     89% 0.0 mm 0.00 W/m2
04:09 12.5 °C 10.7 °C 1008.0 hPa Calm     89% 0.0 mm 0.00 W/m2
04:14 12.5 °C 10.9 °C 1008.0 hPa Calm     90% 0.0 mm 0.00 W/m2
04:19 12.3 °C 10.5 °C 1008.0 hPa Calm     89% 0.0 mm 0.00 W/m2
04:24 12.2 °C 10.6 °C 1008.0 hPa Calm     90% 0.0 mm 0.00 W/m2
04:29 12.2 °C 10.6 °C 1008.0 hPa Calm     90% 0.0 mm 0.00 W/m2
04:34 12.2 °C 10.6 °C 1008.0 hPa Calm     90% 0.0 mm 0.00 W/m2
04:39 12.2 °C 10.6 °C 1008.0 hPa Calm     90% 0.0 mm 0.00 W/m2
04:44 12.2 °C 10.6 °C 1008.0 hPa Calm     90% 0.0 mm 0.00 W/m2
04:49 12.3 °C 10.7 °C 1008.0 hPa Calm     90% 0.0 mm 0.00 W/m2
04:54 12.2 °C 10.6 °C 1008.0 hPa Calm     90% 0.0 mm 0.00 W/m2
04:59 12.2 °C 10.6 °C 1008.0 hPa Calm     90% 0.0 mm 0.00 W/m2
05:04 12.1 °C 10.5 °C 1008.0 hPa Calm     90% 0.0 mm 0.00 W/m2
05:09 11.9 °C 10.3 °C 1008.0 hPa Calm     90% 0.0 mm 0.00 W/m2
05:14 11.9 °C 10.3 °C 1008.0 hPa Calm     90% 0.0 mm 0.00 W/m2
05:19 12.0 °C 10.4 °C 1008.4 hPa Calm     90% 0.0 mm 0.00 W/m2
05:24 12.1 °C 10.7 °C 1008.0 hPa Calm     91% 0.0 mm 0.00 W/m2
05:29 12.1 °C 10.7 °C 1008.0 hPa Calm     91% 0.0 mm 0.00 W/m2
05:34 12.2 °C 10.8 °C 1008.0 hPa Calm     91% 0.0 mm 0.00 W/m2
05:39 12.2 °C 10.8 °C 1008.0 hPa Calm     91% 0.0 mm 5.00 W/m2
05:44 12.2 °C 10.8 °C 1008.0 hPa Calm     91% 0.0 mm 7.00 W/m2
05:49 12.2 °C 10.8 °C 1008.0 hPa Calm     91% 0.0 mm 9.00 W/m2
05:54 12.3 °C 10.9 °C 1008.0 hPa Calm     91% 0.0 mm 11.00 W/m2
05:59 12.3 °C 10.9 °C 1008.4 hPa Calm     91% 0.0 mm 14.00 W/m2
06:04 12.2 °C 10.8 °C 1008.4 hPa Calm     91% 0.0 mm 16.00 W/m2
06:09 12.2 °C 10.8 °C 1008.4 hPa Calm     91% 0.0 mm 16.00 W/m2
06:14 12.2 °C 10.8 °C 1008.4 hPa Calm     91% 0.0 mm 18.00 W/m2
06:19 12.2 °C 10.8 °C 1008.4 hPa Calm     91% 0.0 mm 19.00 W/m2
06:24 12.2 °C 10.8 °C 1008.4 hPa Calm     91% 0.0 mm 21.00 W/m2
06:29 12.2 °C 10.8 °C 1008.4 hPa Calm     91% 0.0 mm 23.00 W/m2
06:34 12.2 °C 10.8 °C 1008.4 hPa Calm     91% 0.0 mm 25.00 W/m2
06:39 12.2 °C 10.8 °C 1008.4 hPa Calm     91% 0.0 mm 28.00 W/m2
06:44 12.3 °C 10.9 °C 1008.4 hPa Calm     91% 0.0 mm 30.00 W/m2
06:49 12.4 °C 11.0 °C 1008.4 hPa Calm     91% 0.0 mm 32.00 W/m2
06:54 12.4 °C 11.0 °C 1008.4 hPa Calm     91% 0.0 mm 39.00 W/m2
06:59 12.4 °C 11.0 °C 1008.4 hPa Calm     91% 0.0 mm 46.00 W/m2
07:04 12.5 °C 11.1 °C 1008.7 hPa Calm     91% 0.0 mm 56.00 W/m2
07:09 12.6 °C 11.2 °C 1008.7 hPa Calm     91% 0.0 mm 69.00 W/m2
07:14 12.9 °C 11.5 °C 1008.7 hPa Calm     91% 0.0 mm 76.00 W/m2
07:19 13.0 °C 11.6 °C 1008.7 hPa Calm     91% 0.0 mm 91.00 W/m2
07:24 13.2 °C 11.8 °C 1008.7 hPa Calm   1.6 km/h 91% 0.0 mm 107.00 W/m2
07:29 13.3 °C 11.9 °C 1008.7 hPa Calm   1.6 km/h 91% 0.0 mm 123.00 W/m2
07:34 13.4 °C 12.0 °C 1008.7 hPa Calm   1.6 km/h 91% 0.0 mm 139.00 W/m2
07:39 13.5 °C 11.9 °C 1008.7 hPa Calm   1.6 km/h 90% 0.0 mm 156.00 W/m2
07:44 13.7 °C 12.1 °C 1008.7 hPa WNW 1.4 km/h 1.6 km/h 90% 0.0 mm 174.00 W/m2
07:49 13.9 °C 12.1 °C 1008.7 hPa WNW 4.8 km/h 4.8 km/h 89% 0.0 mm 186.00 W/m2
07:54 14.1 °C 12.3 °C 1008.7 hPa WNW 1.4 km/h 3.2 km/h 89% 0.0 mm 202.00 W/m2
07:59 14.3 °C 12.3 °C 1008.7 hPa Calm   1.6 km/h 88% 0.0 mm 218.00 W/m2
08:04 14.6 °C 12.6 °C 1008.7 hPa WNW 3.2 km/h 3.2 km/h 88% 0.0 mm 234.00 W/m2
08:09 14.8 °C 12.7 °C 1008.7 hPa Calm   4.8 km/h 87% 0.0 mm 250.00 W/m2
08:14 15.0 °C 12.7 °C 1008.7 hPa WNW 4.7 km/h 4.8 km/h 86% 0.0 mm 265.00 W/m2
08:19 15.3 °C 12.8 °C 1008.7 hPa WNW 1.4 km/h 1.6 km/h 85% 0.0 mm 281.00 W/m2
08:24 15.7 °C 12.8 °C 1008.7 hPa WNW 8.0 km/h 8.0 km/h 83% 0.0 mm 294.00 W/m2
08:29 16.5 °C 13.0 °C 1008.7 hPa WNW 1.4 km/h 1.6 km/h 80% 0.0 mm 309.00 W/m2
08:34 16.8 °C 12.7 °C 1008.7 hPa Calm   3.2 km/h 77% 0.0 mm 323.00 W/m2
08:39 17.0 °C 12.7 °C 1008.7 hPa South 9.7 km/h 9.7 km/h 76% 0.0 mm 343.00 W/m2
08:44 17.4 °C 12.9 °C 1008.7 hPa South 1.4 km/h 4.8 km/h 75% 0.0 mm 359.00 W/m2
08:49 17.3 °C 12.4 °C 1008.7 hPa South 4.7 km/h 6.4 km/h 73% 0.0 mm 376.00 W/m2
08:54 17.6 °C 12.5 °C 1008.7 hPa South 1.4 km/h 6.4 km/h 72% 0.0 mm 390.00 W/m2
08:59 17.8 °C 11.6 °C 1008.7 hPa South 7.9 km/h 8.0 km/h 67% 0.0 mm 404.00 W/m2
09:04 17.3 °C 11.3 °C 1009.0 hPa South 7.9 km/h 11.3 km/h 68% 0.0 mm 420.00 W/m2
09:09 17.1 °C 11.6 °C 1008.7 hPa South 6.4 km/h 6.4 km/h 70% 0.0 mm 434.00 W/m2
09:14 17.4 °C 11.7 °C 1008.7 hPa Calm   9.7 km/h 69% 0.0 mm 446.00 W/m2
09:19 17.7 °C 11.7 °C 1008.7 hPa South 6.4 km/h 8.0 km/h 68% 0.0 mm 459.00 W/m2
09:24 17.8 °C 11.6 °C 1008.7 hPa South 11.3 km/h 11.3 km/h 67% 0.0 mm 471.00 W/m2
09:29 17.9 °C 11.9 °C 1008.7 hPa South 7.9 km/h 9.7 km/h 68% 0.0 mm 483.00 W/m2
09:34 18.2 °C 12.2 °C 1008.7 hPa SSE 4.7 km/h 8.0 km/h 68% 0.0 mm 494.00 W/m2
09:39 18.3 °C 11.8 °C 1008.7 hPa South 3.2 km/h 14.5 km/h 66% 0.0 mm 506.00 W/m2
09:44 18.5 °C 12.3 °C 1008.7 hPa Calm   8.0 km/h 67% 0.0 mm 519.00 W/m2
09:49 18.5 °C 12.3 °C 1008.4 hPa SSW 3.2 km/h 9.7 km/h 67% 0.0 mm 527.00 W/m2
09:54 18.7 °C 12.0 °C 1008.7 hPa SSW 1.4 km/h 6.4 km/h 65% 0.0 mm 541.00 W/m2
09:59 18.8 °C 12.1 °C 1008.7 hPa South 13.0 km/h 12.9 km/h 65% 0.0 mm 552.00 W/m2
10:04 18.8 °C 11.4 °C 1008.4 hPa SSE 6.4 km/h 12.9 km/h 62% 0.0 mm 559.00 W/m2
10:09 18.8 °C 12.3 °C 1008.4 hPa South 7.9 km/h 11.3 km/h 66% 0.0 mm 575.00 W/m2
10:14 19.4 °C 12.7 °C 1008.4 hPa SW 6.4 km/h 9.7 km/h 65% 0.0 mm 587.00 W/m2
10:19 19.2 °C 12.5 °C 1008.4 hPa SW 6.4 km/h 11.3 km/h 65% 0.0 mm 599.00 W/m2
10:24 19.5 °C 12.5 °C 1008.4 hPa SSW 7.9 km/h 11.3 km/h 64% 0.0 mm 621.00 W/m2
10:29 19.3 °C 12.1 °C 1008.4 hPa SW 7.9 km/h 11.3 km/h 63% 0.0 mm 638.00 W/m2
10:34 19.5 °C 12.3 °C 1008.4 hPa SSW 7.9 km/h 17.7 km/h 63% 0.0 mm 134.00 W/m2
10:39 19.8 °C 12.6 °C 1008.4 hPa SSW 6.4 km/h 9.7 km/h 63% 0.0 mm 694.00 W/m2
10:44 19.9 °C 12.4 °C 1008.4 hPa SSW 4.7 km/h 14.5 km/h 62% 0.0 mm 715.00 W/m2
10:49 20.3 °C 12.8 °C 1008.4 hPa WSW 6.4 km/h 8.0 km/h 62% 0.0 mm 752.00 W/m2
10:54 20.5 °C 13.2 °C 1008.4 hPa SW 6.4 km/h 9.7 km/h 63% 0.0 mm 796.00 W/m2
10:59 20.7 °C 12.9 °C 1008.4 hPa SW 6.4 km/h 14.5 km/h 61% 0.0 mm 773.00 W/m2
11:04 20.8 °C 13.3 °C 1008.0 hPa SW 3.2 km/h 8.0 km/h 62% 0.0 mm 793.00 W/m2
11:09 20.6 °C 12.8 °C 1008.0 hPa SSW 9.7 km/h 17.7 km/h 61% 0.0 mm 786.00 W/m2
11:14 20.5 °C 12.7 °C 1008.4 hPa South 4.7 km/h 12.9 km/h 61% 0.0 mm 197.00 W/m2
11:19 20.6 °C 12.8 °C 1008.0 hPa SW 9.7 km/h 14.5 km/h 61% 0.0 mm 775.00 W/m2
11:24 20.4 °C 12.9 °C 1008.0 hPa SW 4.7 km/h 8.0 km/h 62% 0.0 mm 185.00 W/m2
11:29 20.2 °C 12.7 °C 1008.0 hPa SSW 11.1 km/h 11.3 km/h 62% 0.0 mm 197.00 W/m2
11:34 20.3 °C 12.5 °C 1008.0 hPa South 9.7 km/h 12.9 km/h 61% 0.0 mm 199.00 W/m2
11:39 20.5 °C 12.7 °C 1008.0 hPa SW 7.9 km/h 16.1 km/h 61% 0.0 mm 230.00 W/m2
11:44 20.9 °C 12.6 °C 1008.0 hPa SE 6.4 km/h 14.5 km/h 59% 0.0 mm 229.00 W/m2
11:49 20.5 °C 13.0 °C 1007.7 hPa WSW 6.4 km/h 16.1 km/h 62% 0.0 mm 200.00 W/m2
11:54 20.8 °C 13.0 °C 1007.7 hPa SE 4.7 km/h 11.3 km/h 61% 0.0 mm 875.00 W/m2
11:59 21.0 °C 12.4 °C 1008.0 hPa South 11.1 km/h 20.9 km/h 58% 0.0 mm 835.00 W/m2
12:04 21.7 °C 13.1 °C 1007.7 hPa SSW 9.7 km/h 14.5 km/h 58% 0.0 mm 860.00 W/m2
12:09 21.5 °C 12.4 °C 1007.7 hPa SSE 4.7 km/h 14.5 km/h 56% 0.0 mm 877.00 W/m2
12:14 21.7 °C 12.3 °C 1007.7 hPa SSE 13.0 km/h 17.7 km/h 55% 0.0 mm 865.00 W/m2
12:19 21.5 °C 12.6 °C 1007.7 hPa South 4.7 km/h 14.5 km/h 57% 0.0 mm 250.00 W/m2
12:24 21.4 °C 12.3 °C 1007.7 hPa SSW 9.7 km/h 11.3 km/h 56% 0.0 mm 279.00 W/m2
12:29 21.3 °C 12.7 °C 1007.7 hPa South 1.4 km/h 4.8 km/h 58% 0.0 mm 279.00 W/m2
12:34 22.2 °C 12.7 °C 1007.7 hPa SSW 11.1 km/h 12.9 km/h 55% 0.0 mm 290.00 W/m2
12:39 22.1 °C 12.4 °C 1007.3 hPa SE 17.7 km/h 17.7 km/h 54% 0.0 mm 967.00 W/m2
12:44 22.3 °C 12.8 °C 1007.7 hPa South 13.0 km/h 16.1 km/h 55% 0.0 mm 383.00 W/m2
12:49 22.0 °C 12.5 °C 1007.7 hPa SSE 1.4 km/h 11.3 km/h 55% 0.0 mm 290.00 W/m2
12:54 21.8 °C 12.4 °C 1007.3 hPa SSE 7.9 km/h 12.9 km/h 55% 0.0 mm 410.00 W/m2
12:59 21.5 °C 12.4 °C 1007.3 hPa SSE 16.3 km/h 22.5 km/h 56% 0.0 mm 1004.00 W/m2
13:04 21.6 °C 12.4 °C 1007.3 hPa SSW 4.7 km/h 11.3 km/h 56% 0.0 mm 656.00 W/m2
13:09 21.7 °C 12.5 °C 1007.3 hPa South 16.3 km/h 19.3 km/h 56% 0.0 mm 301.00 W/m2
13:14 21.6 °C 13.0 °C 1007.3 hPa SSE 14.3 km/h 14.5 km/h 58% 0.0 mm 327.00 W/m2
13:19 22.2 °C 13.5 °C 1007.3 hPa SE 13.0 km/h 19.3 km/h 58% 0.0 mm 984.00 W/m2
13:24 22.4 °C 13.2 °C 1007.3 hPa SE 7.9 km/h 11.3 km/h 56% 0.0 mm 951.00 W/m2
13:29 22.5 °C 13.3 °C 1007.3 hPa South 24.1 km/h 24.1 km/h 56% 0.0 mm 932.00 W/m2
13:34 22.1 °C 13.2 °C 1007.3 hPa SSW 9.7 km/h 12.9 km/h 57% 0.0 mm 944.00 W/m2
13:39 23.0 °C 13.5 °C 1007.3 hPa SW 13.0 km/h 16.1 km/h 55% 0.0 mm 965.00 W/m2
13:44 23.2 °C 13.4 °C 1007.3 hPa SSE 16.3 km/h 22.5 km/h 54% 0.0 mm 942.00 W/m2
13:49 23.3 °C 13.8 °C 1007.3 hPa South 11.1 km/h 11.3 km/h 55% 0.0 mm 265.00 W/m2
13:54 22.9 °C 13.1 °C 1007.3 hPa SSE 14.3 km/h 22.5 km/h 54% 0.0 mm 888.00 W/m2
13:59 22.4 °C 12.6 °C 1007.0 hPa South 11.1 km/h 20.9 km/h 54% 0.0 mm 842.00 W/m2
14:04 23.6 °C 13.2 °C 1007.0 hPa South 6.4 km/h 16.1 km/h 52% 0.0 mm 830.00 W/m2
14:09 22.8 °C 12.4 °C 1007.3 hPa SSE 16.3 km/h 25.7 km/h 52% 0.0 mm 817.00 W/m2
14:14 22.9 °C 13.1 °C 1007.0 hPa South 13.0 km/h 12.9 km/h 54% 0.0 mm 812.00 W/m2
14:19 23.3 °C 13.2 °C 1007.0 hPa SSE 19.5 km/h 19.3 km/h 53% 0.0 mm 759.00 W/m2
14:24 23.7 °C 13.6 °C 1007.0 hPa South 7.9 km/h 12.9 km/h 53% 0.0 mm 745.00 W/m2
14:29 23.5 °C 12.8 °C 1007.0 hPa South 11.1 km/h 24.1 km/h 51% 0.0 mm 819.00 W/m2
14:34 23.4 °C 13.3 °C 1007.0 hPa SSE 11.1 km/h 17.7 km/h 53% 0.0 mm 793.00 W/m2
14:39 23.0 °C 12.6 °C 1007.0 hPa South 13.0 km/h 16.1 km/h 52% 0.0 mm 784.00 W/m2
14:44 23.0 °C 12.3 °C 1007.0 hPa South 20.9 km/h 22.5 km/h 51% 0.0 mm 786.00 W/m2
14:49 23.0 °C 12.3 °C 1007.0 hPa South 20.9 km/h 20.9 km/h 51% 0.0 mm 800.00 W/m2
14:54 23.0 °C 12.6 °C 1007.0 hPa SE 6.4 km/h 14.5 km/h 52% 0.0 mm 714.00 W/m2
14:59 23.9 °C 12.8 °C 1007.0 hPa SE 14.3 km/h 22.5 km/h 50% 0.0 mm 835.00 W/m2
15:04 23.4 °C 12.7 °C 1007.0 hPa South 11.1 km/h 16.1 km/h 51% 0.0 mm 626.00 W/m2
15:09 23.4 °C 12.7 °C 1007.0 hPa SSE 6.4 km/h 14.5 km/h 51% 0.0 mm 468.00 W/m2
15:14 23.3 °C 12.6 °C 1007.0 hPa SSE 6.4 km/h 19.3 km/h 51% 0.0 mm 888.00 W/m2
15:19 23.6 °C 12.6 °C 1006.7 hPa SE 22.7 km/h 22.5 km/h 50% 0.0 mm 805.00 W/m2
15:24 23.4 °C 12.4 °C 1006.7 hPa SSE 11.1 km/h 22.5 km/h 50% 0.0 mm 775.00 W/m2
15:29 23.2 °C 11.9 °C 1007.0 hPa South 13.0 km/h 20.9 km/h 49% 0.0 mm 246.00 W/m2
15:34 22.7 °C 12.0 °C 1006.7 hPa SSE 7.9 km/h 19.3 km/h 51% 0.0 mm 311.00 W/m2
15:39 22.9 °C 12.2 °C 1006.7 hPa South 7.9 km/h 24.1 km/h 51% 0.0 mm 780.00 W/m2
15:44 23.1 °C 11.8 °C 1006.7 hPa SSE 22.7 km/h 25.7 km/h 49% 0.0 mm 749.00 W/m2
15:49 22.8 °C 12.1 °C 1006.7 hPa SE 3.2 km/h 17.7 km/h 51% 0.0 mm 744.00 W/m2
15:54 23.1 °C 12.1 °C 1006.7 hPa South 14.3 km/h 16.1 km/h 50% 0.0 mm 754.00 W/m2
15:59 22.8 °C 11.8 °C 1006.7 hPa SSE 4.7 km/h 24.1 km/h 50% 0.0 mm 770.00 W/m2
16:04 23.3 °C 12.0 °C 1006.3 hPa SE 6.4 km/h 19.3 km/h 49% 0.0 mm 708.00 W/m2
16:09 23.3 °C 11.4 °C 1006.3 hPa SSE 9.7 km/h 22.5 km/h 47% 0.0 mm 737.00 W/m2
16:14 23.1 °C 11.2 °C 1006.3 hPa SSE 13.0 km/h 24.1 km/h 47% 0.0 mm 805.00 W/m2
16:19 22.9 °C 11.3 °C 1006.3 hPa SE 13.0 km/h 20.9 km/h 48% 0.0 mm 729.00 W/m2
16:24 22.9 °C 11.6 °C 1006.3 hPa SE 14.3 km/h 17.7 km/h 49% 0.0 mm 675.00 W/m2
16:29 23.2 °C 11.6 °C 1006.3 hPa SSE 7.9 km/h 20.9 km/h 48% 0.0 mm 650.00 W/m2
16:34 23.0 °C 11.7 °C 1006.3 hPa SSE 24.1 km/h 24.1 km/h 49% 0.0 mm 647.00 W/m2
16:39 23.0 °C 11.1 °C 1006.3 hPa SSE 17.7 km/h 27.4 km/h 47% 0.0 mm 742.00 W/m2
16:44 22.9 °C 10.7 °C 1006.3 hPa SSE 13.0 km/h 25.7 km/h 46% 0.0 mm 735.00 W/m2
16:49 22.7 °C 11.1 °C 1006.3 hPa SSE 22.7 km/h 22.5 km/h 48% 0.0 mm 635.00 W/m2
16:54 22.4 °C 11.2 °C 1006.3 hPa SSE 7.9 km/h 20.9 km/h 49% 0.0 mm 271.00 W/m2
16:59 22.6 °C 11.6 °C 1006.3 hPa South 9.7 km/h 17.7 km/h 50% 0.0 mm 661.00 W/m2
17:04 22.7 °C 11.4 °C 1006.3 hPa South 13.0 km/h 22.5 km/h 49% 0.0 mm 533.00 W/m2
17:09 23.0 °C 11.7 °C 1006.3 hPa SE 3.2 km/h 14.5 km/h 49% 0.0 mm 563.00 W/m2
17:14 22.9 °C 11.0 °C 1006.3 hPa South 11.1 km/h 24.1 km/h 47% 0.0 mm 547.00 W/m2
17:19 23.2 °C 11.3 °C 1006.3 hPa SSE 17.7 km/h 22.5 km/h 47% 0.0 mm 540.00 W/m2
17:24 23.0 °C 11.7 °C 1006.3 hPa ESE 14.3 km/h 19.3 km/h 49% 0.0 mm 197.00 W/m2
17:29 23.1 °C 11.5 °C 1006.3 hPa SE 14.3 km/h 20.9 km/h 48% 0.0 mm 202.00 W/m2
17:34 22.6 °C 11.0 °C 1006.0 hPa South 9.7 km/h 19.3 km/h 48% 0.0 mm 587.00 W/m2
17:39 22.7 °C 10.8 °C 1006.0 hPa ESE 22.5 km/h 22.5 km/h 47% 0.0 mm 141.00 W/m2
17:44 22.2 °C 10.4 °C 1006.0 hPa SSW 16.3 km/h 22.5 km/h 47% 0.0 mm 142.00 W/m2
17:49 22.1 °C 11.2 °C 1006.3 hPa South 17.7 km/h 22.5 km/h 50% 0.0 mm 118.00 W/m2
17:54 21.8 °C 10.9 °C 1006.0 hPa SSE 9.7 km/h 19.3 km/h 50% 0.0 mm 113.00 W/m2
17:59 21.9 °C 11.3 °C 1006.0 hPa SSE 9.7 km/h 17.7 km/h 51% 0.0 mm 93.00 W/m2
18:04 21.8 °C 10.9 °C 1006.0 hPa South 7.9 km/h 22.5 km/h 50% 0.0 mm 156.00 W/m2
18:09 21.9 °C 11.0 °C 1006.0 hPa SSE 17.7 km/h 19.3 km/h 50% 0.0 mm 185.00 W/m2
18:14 21.8 °C 10.9 °C 1006.0 hPa SSW 11.1 km/h 17.7 km/h 50% 0.0 mm 171.00 W/m2
18:19 21.9 °C 11.3 °C 1006.0 hPa South 4.7 km/h 17.7 km/h 51% 0.0 mm 139.00 W/m2
18:24 21.9 °C 11.0 °C 1006.0 hPa SSE 9.7 km/h 12.9 km/h 50% 0.0 mm 223.00 W/m2
18:29 21.9 °C 11.0 °C 1005.6 hPa SSW 6.4 km/h 11.3 km/h 50% 0.0 mm 193.00 W/m2
18:34 22.4 °C 11.5 °C 1005.6 hPa SSE 9.7 km/h 12.9 km/h 50% 0.0 mm 330.00 W/m2
18:39 22.4 °C 11.2 °C 1005.6 hPa SSE 4.7 km/h 11.3 km/h 49% 0.0 mm 329.00 W/m2
18:44 22.7 °C 11.4 °C 1005.6 hPa SE 4.7 km/h 9.7 km/h 49% 0.0 mm 352.00 W/m2
18:49 22.7 °C 11.4 °C 1005.6 hPa SE 6.4 km/h 12.9 km/h 49% 0.0 mm 316.00 W/m2
18:54 22.4 °C 11.2 °C 1005.6 hPa South 7.9 km/h 17.7 km/h 49% 0.0 mm 323.00 W/m2
18:59 22.4 °C 11.5 °C 1005.6 hPa ESE 6.4 km/h 19.3 km/h 50% 0.0 mm 251.00 W/m2
19:04 22.4 °C 11.8 °C 1005.6 hPa South 7.9 km/h 17.7 km/h 51% 0.0 mm 104.00 W/m2
19:09 22.3 °C 12.0 °C 1005.6 hPa SE 14.3 km/h 19.3 km/h 52% 0.0 mm 98.00 W/m2
19:14 22.2 °C 11.9 °C 1005.6 hPa South 11.1 km/h 14.5 km/h 52% 0.0 mm 121.00 W/m2
19:19 22.1 °C 11.8 °C 1005.6 hPa SSE 6.4 km/h 12.9 km/h 52% 0.0 mm 139.00 W/m2
19:24 22.2 °C 12.2 °C 1005.6 hPa ESE 20.9 km/h 20.9 km/h 53% 0.0 mm 137.00 W/m2
19:29 22.2 °C 12.4 °C 1005.6 hPa SSE 14.3 km/h 16.1 km/h 54% 0.0 mm 195.00 W/m2
19:34 21.9 °C 12.2 °C 1005.6 hPa South 13.0 km/h 22.5 km/h 54% 0.0 mm 100.00 W/m2
19:39 21.9 °C 12.2 °C 1005.6 hPa South 9.7 km/h 24.1 km/h 54% 0.0 mm 148.00 W/m2
19:44 21.9 °C 12.2 °C 1005.3 hPa ESE 11.1 km/h 12.9 km/h 54% 0.0 mm 127.00 W/m2
19:49 21.8 °C 12.1 °C 1005.3 hPa SSE 4.7 km/h 9.7 km/h 54% 0.0 mm 93.00 W/m2
19:54 21.8 °C 12.4 °C 1005.3 hPa SSE 6.4 km/h 16.1 km/h 55% 0.0 mm 53.00 W/m2
19:59 21.6 °C 12.4 °C 1005.6 hPa ESE 7.9 km/h 12.9 km/h 56% 0.0 mm 58.00 W/m2
20:04 21.5 °C 12.4 °C 1005.6 hPa ESE 4.7 km/h 16.1 km/h 56% 0.0 mm 42.00 W/m2
20:09 21.3 °C 12.4 °C 1005.6 hPa ESE 6.4 km/h 16.1 km/h 57% 0.0 mm 53.00 W/m2
20:14 21.3 °C 12.7 °C 1005.6 hPa ESE 4.7 km/h 19.3 km/h 58% 0.0 mm 46.00 W/m2
20:19 21.2 °C 12.6 °C 1005.6 hPa SE 3.2 km/h 14.5 km/h 58% 0.0 mm 42.00 W/m2
20:24 21.1 °C 12.8 °C 1005.6 hPa SE 7.9 km/h 12.9 km/h 59% 0.0 mm 32.00 W/m2
20:29 20.9 °C 12.8 °C 1005.6 hPa South 7.9 km/h 12.9 km/h 60% 0.0 mm 23.00 W/m2
20:34 20.8 °C 12.7 °C 1005.6 hPa SE 1.4 km/h 11.3 km/h 60% 0.0 mm 21.00 W/m2
20:39 20.7 °C 12.9 °C 1005.6 hPa ESE 6.4 km/h 12.9 km/h 61% 0.0 mm 14.00 W/m2
20:44 20.6 °C 12.8 °C 1005.6 hPa SSE 9.7 km/h 16.1 km/h 61% 0.0 mm 11.00 W/m2
20:49 20.5 °C 13.0 °C 1005.6 hPa ESE 11.1 km/h 16.1 km/h 62% 0.0 mm 7.00 W/m2
20:54 20.4 °C 12.9 °C 1005.6 hPa ESE 6.4 km/h 12.9 km/h 62% 0.0 mm 5.00 W/m2
20:59 20.3 °C 13.0 °C 1005.6 hPa SSE 11.1 km/h 14.5 km/h 63% 0.0 mm 0.00 W/m2
21:04 20.2 °C 12.9 °C 1005.6 hPa ESE 3.2 km/h 12.9 km/h 63% 0.0 mm 0.00 W/m2
21:09 20.1 °C 12.8 °C 1005.6 hPa Calm   6.4 km/h 63% 0.0 mm 0.00 W/m2
21:14 19.9 °C 12.9 °C 1005.6 hPa SE 1.4 km/h 16.1 km/h 64% 0.0 mm 0.00 W/m2
21:19 19.7 °C 12.7 °C 1005.6 hPa ESE 9.7 km/h 11.3 km/h 64% 0.0 mm 0.00 W/m2
21:24 19.6 °C 12.8 °C 1005.6 hPa SE 9.7 km/h 12.9 km/h 65% 0.0 mm 0.00 W/m2
21:29 19.5 °C 12.7 °C 1005.6 hPa SE 4.7 km/h 8.0 km/h 65% 0.0 mm 0.00 W/m2
21:34 19.4 °C 12.9 °C 1005.6 hPa East 6.4 km/h 12.9 km/h 66% 0.0 mm 0.00 W/m2
21:39 19.3 °C 12.8 °C 1005.6 hPa ESE 6.4 km/h 11.3 km/h 66% 0.0 mm 0.00 W/m2
21:44 19.2 °C 12.7 °C 1005.6 hPa Calm   11.3 km/h 66% 0.0 mm 0.00 W/m2
21:49 19.1 °C 12.8 °C 1005.6 hPa East 1.4 km/h 4.8 km/h 67% 0.0 mm 0.00 W/m2
21:54 19.0 °C 12.7 °C 1005.6 hPa East 4.7 km/h 14.5 km/h 67% 0.0 mm 0.00 W/m2
21:59 18.9 °C 12.6 °C 1005.6 hPa ESE 9.7 km/h 9.7 km/h 67% 0.0 mm 0.00 W/m2
22:04 18.9 °C 12.6 °C 1005.6 hPa East 20.9 km/h 20.9 km/h 67% 0.0 mm 0.00 W/m2
22:09 18.8 °C 12.8 °C 1005.6 hPa ESE 9.7 km/h 12.9 km/h 68% 0.0 mm 0.00 W/m2
22:14 18.7 °C 12.7 °C 1005.6 hPa ESE 7.9 km/h 12.9 km/h 68% 0.0 mm 0.00 W/m2
22:19 18.6 °C 12.6 °C 1005.6 hPa ESE 7.9 km/h 12.9 km/h 68% 0.0 mm 0.00 W/m2
22:24 18.5 °C 12.5 °C 1005.6 hPa SE 1.4 km/h 9.7 km/h 68% 0.0 mm 0.00 W/m2
22:29 18.4 °C 12.6 °C 1005.6 hPa SE 4.7 km/h 12.9 km/h 69% 0.0 mm 0.00 W/m2
22:34 18.3 °C 12.5 °C 1005.6 hPa ESE 4.7 km/h 12.9 km/h 69% 0.0 mm 0.00 W/m2
22:39 18.2 °C 12.4 °C 1005.6 hPa ESE 4.7 km/h 11.3 km/h 69% 0.0 mm 0.00 W/m2
22:44 18.1 °C 12.3 °C 1005.6 hPa ESE 4.7 km/h 14.5 km/h 69% 0.0 mm 0.00 W/m2
22:49 18.0 °C 12.4 °C 1005.6 hPa ESE 4.7 km/h 11.3 km/h 70% 0.0 mm 0.00 W/m2
22:54 18.0 °C 12.4 °C 1005.6 hPa ESE 13.0 km/h 19.3 km/h 70% 0.0 mm 0.00 W/m2
22:59 18.0 °C 12.4 °C 1005.6 hPa ESE 6.4 km/h 8.0 km/h 70% 0.0 mm 0.00 W/m2
23:04 18.0 °C 12.4 °C 1005.6 hPa ESE 7.9 km/h 8.0 km/h 70% 0.0 mm 0.00 W/m2
23:09 18.0 °C 12.4 °C 1005.3 hPa East 6.4 km/h 9.7 km/h 70% 0.0 mm 0.00 W/m2
23:14 18.0 °C 12.4 °C 1005.3 hPa ESE 6.4 km/h 17.7 km/h 70% 0.0 mm 0.00 W/m2
23:19 18.0 °C 12.4 °C 1005.3 hPa ESE 7.9 km/h 19.3 km/h 70% 0.0 mm 0.00 W/m2
23:24 17.9 °C 12.6 °C 1005.3 hPa ESE 20.9 km/h 20.9 km/h 71% 0.0 mm 0.00 W/m2
23:29 17.9 °C 12.6 °C 1005.0 hPa SSE 9.7 km/h 17.7 km/h 71% 0.0 mm 0.00 W/m2
23:34 17.9 °C 12.6 °C 1005.0 hPa ESE 4.7 km/h 11.3 km/h 71% 0.0 mm 0.00 W/m2
23:39 17.9 °C 12.6 °C 1005.0 hPa ESE 7.9 km/h 12.9 km/h 71% 0.0 mm 0.00 W/m2
23:44 17.9 °C 12.6 °C 1005.0 hPa SSE 3.2 km/h 9.7 km/h 71% 0.0 mm 0.00 W/m2
23:49 17.9 °C 12.6 °C 1005.0 hPa ESE 4.7 km/h 8.0 km/h 71% 0.0 mm 0.00 W/m2
23:54 17.9 °C 12.6 °C 1005.0 hPa Calm   12.9 km/h 71% 0.0 mm 0.00 W/m2
23:59 17.8 °C 12.5 °C 1004.6 hPa ESE 4.7 km/h 9.7 km/h 71% 0.0 mm 0.00 W/m2